Time;durP1;ratioP1;P1;durP2;ratioP2;P2;SDS_P1;SDS_P2;PMS_P1;PMS_P2;Temp;Humidity;BMP_temperature;BMP_pressure;BME280_temperature;BME280_humidity;BME280_pressure;Samples;Min_cycle;Max_cycle;Signal;HPM_P1;HPM_P2
2023/10/11 00:01:10;;;;;;;12.23;11.03;;;16.60;99.90;;;;;;4987174;28;20275;-53
2023/10/11 00:03:35;;;;;;;11.73;10.63;;;16.60;99.90;;;;;;4989723;28;20189;-53
2023/10/11 00:06:05;;;;;;;14.50;12.60;;;16.60;99.90;;;;;;4988760;28;20200;-54
2023/10/11 00:08:39;;;;;;;14.33;12.37;;;16.70;99.90;;;;;;4992376;28;20285;-54
2023/10/11 00:11:07;;;;;;;12.67;9.83;;;16.70;99.90;;;;;;4988550;28;20204;-52
2023/10/11 00:13:35;;;;;;;14.60;11.83;;;16.60;99.90;;;;;;4993775;28;20200;-53
2023/10/11 00:16:10;;;;;;;16.40;12.03;;;16.70;99.90;;;;;;4994361;28;20377;-52
2023/10/11 00:18:40;;;;;;;11.47;10.27;;;16.60;99.90;;;;;;4993084;28;20487;-52
2023/10/11 00:21:15;;;;;;;12.33;10.73;;;16.50;99.90;;;;;;4993366;28;20283;-52
2023/10/11 00:23:46;;;;;;;12.20;10.97;;;16.50;99.90;;;;;;4989670;28;20550;-52
2023/10/11 00:26:14;;;;;;;12.53;11.43;;;16.40;99.90;;;;;;4985119;28;20201;-53
2023/10/11 00:28:40;;;;;;;14.37;10.30;;;16.50;99.90;;;;;;4991118;28;20259;-53
2023/10/11 00:31:13;;;;;;;12.63;10.60;;;16.50;99.90;;;;;;4974529;28;20208;-53
2023/10/11 00:33:39;;;;;;;11.60;9.90;;;16.50;99.90;;;;;;4992076;28;20200;-54
2023/10/11 00:36:05;;;;;;;11.67;10.43;;;16.50;99.90;;;;;;4976727;28;20200;-53
2023/10/11 00:38:42;;;;;;;11.60;9.77;;;16.50;99.90;;;;;;4993755;28;20215;-53
2023/10/11 00:41:12;;;;;;;11.90;10.13;;;16.50;99.90;;;;;;4993751;28;20249;-53
2023/10/11 00:43:50;;;;;;;12.53;9.57;;;16.50;99.90;;;;;;4990469;28;20298;-53
2023/10/11 00:46:19;;;;;;;12.20;9.20;;;16.40;99.90;;;;;;4993374;28;20904;-53
2023/10/11 00:48:53;;;;;;;12.17;9.70;;;16.40;99.90;;;;;;4994113;28;20224;-53
2023/10/11 00:51:32;;;;;;;13.30;9.10;;;16.40;99.90;;;;;;4993730;28;21047;-53
2023/10/11 00:54:03;;;;;;;9.13;8.23;;;16.50;99.90;;;;;;4991528;28;20195;-53
2023/10/11 00:56:31;;;;;;;12.37;9.47;;;16.50;99.90;;;;;;4995580;28;20224;-53
2023/10/11 00:58:58;;;;;;;13.60;9.93;;;16.50;99.90;;;;;;4990764;28;20204;-53
2023/10/11 01:01:24;;;;;;;9.43;8.43;;;16.30;99.90;;;;;;4990033;28;20204;-53
2023/10/11 01:03:52;;;;;;;13.33;9.47;;;16.30;99.90;;;;;;4987361;28;20744;-55
2023/10/11 01:06:18;;;;;;;10.73;8.93;;;16.30;99.90;;;;;;4989826;28;20204;-53
2023/10/11 01:08:43;;;;;;;10.27;9.27;;;16.30;99.90;;;;;;4993819;28;20729;-53
2023/10/11 01:11:13;;;;;;;10.57;9.43;;;16.30;99.90;;;;;;4991443;28;20581;-53
2023/10/11 01:13:40;;;;;;;11.97;9.07;;;16.30;99.90;;;;;;4973792;28;20206;-52
2023/10/11 01:16:09;;;;;;;10.43;8.70;;;16.30;99.90;;;;;;4989836;28;20200;-53
2023/10/11 01:18:36;;;;;;;11.63;8.77;;;16.30;99.90;;;;;;4992940;28;20200;-53
2023/10/11 01:21:03;;;;;;;11.90;9.33;;;16.20;99.90;;;;;;4992169;28;20192;-54
2023/10/11 01:23:29;;;;;;;12.10;8.37;;;16.20;99.90;;;;;;4993133;28;20231;-54
2023/10/11 01:25:55;;;;;;;9.73;8.43;;;16.20;99.90;;;;;;4991535;28;20196;-53
2023/10/11 01:28:21;;;;;;;11.77;7.63;;;16.30;99.90;;;;;;4993232;28;20224;-53
2023/10/11 01:30:47;;;;;;;11.50;8.63;;;16.20;99.90;;;;;;4992848;28;20215;-54
2023/10/11 01:33:16;;;;;;;12.00;8.20;;;16.30;99.90;;;;;;4991095;28;20200;-54
2023/10/11 01:35:42;;;;;;;11.17;9.20;;;16.20;99.90;;;;;;4992719;28;20634;-52
2023/10/11 01:38:08;;;;;;;10.47;8.60;;;16.20;99.90;;;;;;4992950;28;20295;-52
2023/10/11 01:40:33;;;;;;;9.67;8.37;;;16.00;99.90;;;;;;4976877;28;20196;-53
2023/10/11 01:43:00;;;;;;;12.97;8.90;;;16.10;99.90;;;;;;4992244;28;20205;-53
2023/10/11 01:45:25;;;;;;;12.70;8.50;;;16.10;99.90;;;;;;4990456;28;20220;-53
2023/10/11 01:47:51;;;;;;;9.60;7.60;;;16.10;99.90;;;;;;4971218;28;20314;-57
2023/10/11 01:50:17;;;;;;;9.90;8.00;;;16.10;99.90;;;;;;4991928;28;20189;-52
2023/10/11 01:52:47;;;;;;;10.83;7.70;;;16.00;99.90;;;;;;4993084;28;20769;-52
2023/10/11 01:55:13;;;;;;;12.07;8.10;;;16.00;99.90;;;;;;4993200;28;20205;-52
2023/10/11 01:57:40;;;;;;;9.10;8.00;;;16.00;99.90;;;;;;4993656;28;20193;-57
2023/10/11 02:00:13;;;;;;;8.60;7.70;;;15.90;99.90;;;;;;4967256;28;20254;-55
2023/10/11 02:02:47;;;;;;;11.53;8.17;;;16.00;99.90;;;;;;4992605;28;20543;-56
2023/10/11 02:05:15;;;;;;;12.43;8.23;;;16.00;99.90;;;;;;4988005;28;20270;-60
2023/10/11 02:07:40;;;;;;;13.50;8.67;;;16.00;99.90;;;;;;4975456;28;20236;-53
2023/10/11 02:10:08;;;;;;;10.63;8.73;;;15.90;99.90;;;;;;4993206;28;20713;-53
2023/10/11 02:12:35;;;;;;;13.27;7.80;;;15.90;99.90;;;;;;4992692;28;20278;-53
2023/10/11 02:15:07;;;;;;;8.40;7.20;;;15.90;99.90;;;;;;4988270;28;20200;-52
2023/10/11 02:17:37;;;;;;;11.70;8.43;;;15.90;99.90;;;;;;4990225;28;20283;-53
2023/10/11 02:20:08;;;;;;;10.07;7.63;;;15.90;99.90;;;;;;4989048;28;20291;-52
2023/10/11 02:22:33;;;;;;;9.90;8.17;;;15.90;99.90;;;;;;4971129;28;20247;-53
2023/10/11 02:24:59;;;;;;;8.30;6.87;;;15.90;99.90;;;;;;4990054;28;20229;-52
2023/10/11 02:27:25;;;;;;;12.17;7.40;;;15.60;99.90;;;;;;4988311;28;20235;-53
2023/10/11 02:29:51;;;;;;;14.90;8.40;;;15.60;99.90;;;;;;4972920;28;20584;-52
2023/10/11 02:32:16;;;;;;;10.33;7.63;;;15.50;99.90;;;;;;4993519;28;20713;-52
2023/10/11 02:34:46;;;;;;;10.27;7.50;;;15.60;99.90;;;;;;4993473;28;20235;-52
2023/10/11 02:37:12;;;;;;;11.93;8.03;;;15.70;99.90;;;;;;4987863;28;21057;-53
2023/10/11 02:39:43;;;;;;;13.10;7.47;;;15.70;99.90;;;;;;4984963;28;20210;-53
2023/10/11 02:42:08;;;;;;;11.67;7.10;;;15.70;99.90;;;;;;4990193;28;20196;-53
2023/10/11 02:44:39;;;;;;;10.00;7.73;;;15.80;99.90;;;;;;4990061;28;20208;-54
2023/10/11 02:47:08;;;;;;;9.97;7.17;;;15.70;99.90;;;;;;4990447;28;20204;-53
2023/10/11 02:49:34;;;;;;;9.93;7.00;;;15.60;99.90;;;;;;4974091;28;20734;-53
2023/10/11 02:52:05;;;;;;;11.40;7.90;;;15.60;99.90;;;;;;4991989;28;20287;-53
2023/10/11 02:54:38;;;;;;;10.87;7.30;;;15.60;99.90;;;;;;4973027;28;20324;-52
2023/10/11 02:57:09;;;;;;;8.00;5.70;;;15.60;99.90;;;;;;4990630;28;20196;-52
2023/10/11 02:59:34;;;;;;;10.40;6.80;;;15.70;99.90;;;;;;4989888;28;20210;-53
2023/10/11 03:02:00;;;;;;;9.00;6.63;;;15.70;99.90;;;;;;4989239;28;20200;-52
2023/10/11 03:04:50;;;;;;;10.67;6.83;;;15.60;99.90;;;;;;4988278;28;20208;-53
2023/10/11 03:07:21;;;;;;;7.37;6.67;;;15.50;99.90;;;;;;4988618;28;20219;-52
2023/10/11 03:09:47;;;;;;;9.80;7.67;;;15.40;99.90;;;;;;4990877;28;20902;-52
2023/10/11 03:12:19;;;;;;;11.43;6.93;;;15.40;99.90;;;;;;4955917;28;20200;-53
2023/10/11 03:14:45;;;;;;;9.63;6.63;;;15.40;99.90;;;;;;4989407;28;20214;-53
2023/10/11 03:17:15;;;;;;;9.00;6.33;;;15.40;99.90;;;;;;4987623;28;20196;-52
2023/10/11 03:19:42;;;;;;;9.70;6.47;;;15.50;99.90;;;;;;4987738;28;20205;-52
2023/10/11 03:22:08;;;;;;;11.47;7.83;;;15.40;99.90;;;;;;4989427;28;20200;-52
2023/10/11 03:24:34;;;;;;;11.27;7.53;;;15.40;99.90;;;;;;4991132;28;20880;-52
2023/10/11 03:27:00;;;;;;;8.43;6.17;;;15.40;99.90;;;;;;4986977;28;20211;-52
2023/10/11 03:29:30;;;;;;;10.13;7.40;;;15.40;99.90;;;;;;4990056;28;20196;-52
2023/10/11 03:31:57;;;;;;;13.60;7.23;;;15.30;99.90;;;;;;4980478;28;20196;-52
2023/10/11 03:34:22;;;;;;;9.47;7.57;;;15.20;99.90;;;;;;4990795;28;20386;-53
2023/10/11 03:36:51;;;;;;;10.60;6.83;;;15.10;99.90;;;;;;4991556;28;20206;-52
2023/10/11 03:39:39;;;;;;;9.83;7.60;;;15.20;99.90;;;;;;4988537;28;20192;-53
2023/10/11 03:44:45;;;;;;;9.33;6.40;;;15.30;99.90;;;;;;4991322;28;20204;-56
2023/10/11 03:47:14;;;;;;;12.03;7.30;;;15.30;99.90;;;;;;4991109;28;20215;-56
2023/10/11 03:52:30;;;;;;;9.17;6.03;;;15.20;99.90;;;;;;4989775;28;20236;-52
2023/10/11 03:55:12;;;;;;;11.03;8.67;;;15.20;99.90;;;;;;4976520;28;20331;-53
2023/10/11 03:57:42;;;;;;;11.77;6.77;;;15.20;99.90;;;;;;4973653;28;20697;-53
2023/10/11 04:00:25;;;;;;;13.60;7.50;;;15.20;99.90;;;;;;4990823;28;20203;-53
2023/10/11 04:02:58;;;;;;;9.37;6.17;;;15.10;99.90;;;;;;4993083;28;20207;-52
2023/10/11 04:05:34;;;;;;;14.20;7.33;;;15.20;99.90;;;;;;4989143;28;20875;-52
2023/10/11 04:08:05;;;;;;;11.50;7.13;;;15.20;99.90;;;;;;4993794;28;20287;-52
2023/10/11 04:10:42;;;;;;;11.30;7.13;;;15.20;99.90;;;;;;4994256;28;20265;-52
2023/10/11 04:13:14;;;;;;;8.93;7.03;;;15.10;99.90;;;;;;4994389;28;20204;-53
2023/10/11 04:15:41;;;;;;;7.93;6.20;;;15.00;99.90;;;;;;4994672;28;20295;-53
2023/10/11 04:18:27;;;;;;;8.77;6.40;;;15.10;99.90;;;;;;4992752;28;21118;-52
2023/10/11 04:21:39;;;;;;;10.63;7.27;;;15.00;99.90;;;;;;4993259;28;20270;-53
2023/10/11 04:23:45;;;;;;;14.27;7.73;;;15.00;99.90;;;;;;4982820;28;20228;-53
2023/10/11 04:26:33;;;;;;;8.23;6.27;;;15.00;99.90;;;;;;4996615;28;20287;-52
2023/10/11 04:29:18;;;;;;;13.27;6.80;;;15.10;99.90;;;;;;4992749;28;20274;-53
2023/10/11 04:34:32;;;;;;;10.77;6.83;;;15.00;99.90;;;;;;4992604;28;20614;-53
2023/10/11 04:37:06;;;;;;;12.93;8.03;;;15.10;99.90;;;;;;4993402;28;20208;-52
2023/10/11 04:39:49;;;;;;;10.23;6.27;;;15.00;99.90;;;;;;4990311;28;20234;-53
2023/10/11 04:42:16;;;;;;;10.63;6.37;;;15.10;99.90;;;;;;4990694;28;20693;-53
2023/10/11 04:44:46;;;;;;;11.70;6.50;;;15.20;99.90;;;;;;4992657;28;20350;-53
2023/10/11 04:47:17;;;;;;;8.97;6.30;;;15.20;99.90;;;;;;4988097;28;20218;-52
2023/10/11 04:49:44;;;;;;;9.50;5.40;;;15.20;99.90;;;;;;4987855;28;20200;-52
2023/10/11 04:52:22;;;;;;;10.60;6.17;;;15.20;99.90;;;;;;4994862;28;20239;-53
2023/10/11 04:54:55;;;;;;;9.33;6.20;;;15.20;99.90;;;;;;4990486;28;20592;-52
2023/10/11 04:57:40;;;;;;;10.23;6.87;;;15.20;99.90;;;;;;4982105;28;20189;-53
2023/10/11 05:00:11;;;;;;;10.07;6.70;;;15.30;99.90;;;;;;4994139;28;20323;-54
2023/10/11 05:02:38;;;;;;;11.87;5.97;;;15.30;99.90;;;;;;4977116;28;20627;-53
2023/10/11 05:05:05;;;;;;;11.00;6.23;;;15.40;99.90;;;;;;4994347;28;20424;-53
2023/10/11 05:07:32;;;;;;;9.43;5.33;;;15.40;99.90;;;;;;4991143;28;20243;-53
2023/10/11 05:10:23;;;;;;;8.00;5.80;;;15.40;99.90;;;;;;4975771;28;20207;-54
2023/10/11 05:12:47;;;;;;;6.97;5.17;;;15.40;99.90;;;;;;4995107;28;20276;-54
2023/10/11 05:15:15;;;;;;;10.23;6.50;;;15.50;99.90;;;;;;4995396;28;20204;-54
2023/10/11 05:17:41;;;;;;;10.73;6.10;;;15.50;99.90;;;;;;4975875;28;20275;-54
2023/10/11 05:20:20;;;;;;;8.67;6.37;;;15.50;99.90;;;;;;4994008;28;20250;-53
2023/10/11 05:22:49;;;;;;;10.93;5.83;;;15.50;99.90;;;;;;4990289;28;20690;-54
2023/10/11 05:27:49;;;;;;;8.27;5.40;;;15.50;99.90;;;;;;4993207;28;20223;-53
2023/10/11 05:30:28;;;;;;;12.27;6.73;;;15.50;99.90;;;;;;4993377;28;20675;-53
2023/10/11 05:52:13;;;;;;;12.83;6.20;;;15.50;99.90;;;;;;4993269;28;20345;-53
2023/10/11 05:54:43;;;;;;;8.80;5.63;;;15.40;99.90;;;;;;4993484;28;20227;-53
2023/10/11 05:57:08;;;;;;;9.40;6.10;;;15.50;99.90;;;;;;4989094;28;20937;-53
2023/10/11 05:59:35;;;;;;;10.77;6.30;;;15.60;99.90;;;;;;4992879;28;20223;-53
2023/10/11 06:02:03;;;;;;;17.60;6.03;;;15.50;99.90;;;;;;4972837;28;20321;-52
2023/10/11 06:04:30;;;;;;;10.10;6.43;;;15.50;99.90;;;;;;4988351;28;20215;-53
2023/10/11 06:06:58;;;;;;;8.60;5.20;;;15.40;99.90;;;;;;4970478;28;20203;-53
2023/10/11 06:09:27;;;;;;;11.23;5.67;;;15.50;99.90;;;;;;4988373;28;20242;-53
2023/10/11 06:11:54;;;;;;;10.03;5.33;;;15.50;99.90;;;;;;4992454;28;20224;-56
2023/10/11 06:14:20;;;;;;;14.03;6.33;;;15.50;99.90;;;;;;4994367;28;20578;-56
2023/10/11 06:17:06;;;;;;;8.37;5.67;;;15.50;99.90;;;;;;4992681;28;20191;-57
2023/10/11 06:19:32;;;;;;;12.43;5.60;;;15.50;99.90;;;;;;4985030;28;20196;-58
2023/10/11 06:22:09;;;;;;;10.33;6.27;;;15.50;99.90;;;;;;4990880;28;20227;-58
2023/10/11 06:24:36;;;;;;;6.80;5.23;;;15.60;99.90;;;;;;4988276;28;20705;-58
2023/10/11 06:28:09;;;;;;;9.53;7.03;;;15.60;99.90;;;;;;4991827;28;20765;-55
2023/10/11 06:29:54;;;;;;;7.60;5.63;;;15.60;99.90;;;;;;4992901;28;20699;-56
2023/10/11 06:32:22;;;;;;;11.63;6.03;;;15.70;99.90;;;;;;4988090;28;20207;-54
2023/10/11 06:34:47;;;;;;;9.17;6.03;;;15.80;99.90;;;;;;4992063;28;20200;-54
2023/10/11 06:37:18;;;;;;;7.00;5.10;;;15.90;99.90;;;;;;4991622;28;20262;-55
2023/10/11 06:42:17;;;;;;;8.73;5.73;;;15.90;99.90;;;;;;4989581;28;20701;-55
2023/10/11 06:44:47;;;;;;;8.10;5.50;;;16.00;99.90;;;;;;4986858;28;20228;-59
2023/10/11 06:47:14;;;;;;;10.20;5.60;;;16.10;99.90;;;;;;4990075;28;20204;-57
2023/10/11 06:49:53;;;;;;;7.10;5.33;;;16.20;99.90;;;;;;4971814;28;20207;-58
2023/10/11 06:52:25;;;;;;;9.23;6.00;;;16.20;99.90;;;;;;4992145;28;20222;-65
2023/10/11 06:55:07;;;;;;;8.00;6.00;;;16.30;99.90;;;;;;4974590;28;20544;-63
2023/10/11 06:57:39;;;;;;;8.50;5.47;;;16.30;99.90;;;;;;4990972;28;20682;-60
2023/10/11 07:00:12;;;;;;;9.53;4.90;;;16.40;99.90;;;;;;4972683;28;20196;-66
2023/10/11 07:02:39;;;;;;;9.57;5.20;;;16.50;99.90;;;;;;4970508;28;20253;-56
2023/10/11 07:05:14;;;;;;;8.70;5.10;;;16.70;99.90;;;;;;4990832;28;20262;-66
2023/10/11 07:07:39;;;;;;;7.60;4.90;;;16.70;99.90;;;;;;4988575;28;20820;-62
2023/10/11 07:10:27;;;;;;;12.50;4.97;;;16.80;99.90;;;;;;4989323;28;20224;-65
2023/10/11 07:13:03;;;;;;;11.87;6.47;;;16.90;99.90;;;;;;4993884;28;20203;-56
2023/10/11 07:15:40;;;;;;;6.30;4.80;;;17.00;99.90;;;;;;4985475;28;20685;-61
2023/10/11 07:18:21;;;;;;;9.10;4.93;;;17.00;99.90;;;;;;4986317;28;20231;-55
2023/10/11 07:21:48;;;;;;;8.40;5.57;;;17.10;99.90;;;;;;4994982;28;20185;-56
2023/10/11 07:28:59;;;;;;;8.47;5.23;;;17.50;99.90;;;;;;4994447;28;20255;-61
2023/10/11 07:31:32;;;;;;;8.90;4.27;;;17.60;99.90;;;;;;4995792;28;20207;-56
2023/10/11 07:34:06;;;;;;;8.83;5.77;;;17.70;99.90;;;;;;4992883;28;20771;-60
2023/10/11 07:36:38;;;;;;;10.60;5.17;;;17.70;99.90;;;;;;4996292;28;20208;-57
2023/10/11 07:39:14;;;;;;;7.57;4.50;;;17.90;99.90;;;;;;4977532;28;20296;-57
2023/10/11 07:41:42;;;;;;;7.63;5.00;;;17.90;99.90;;;;;;4990751;28;20235;-53
2023/10/11 07:44:12;;;;;;;8.13;5.23;;;18.00;99.90;;;;;;4994321;28;20291;-56
2023/10/11 07:46:39;;;;;;;8.33;4.87;;;18.10;99.90;;;;;;4991235;28;20269;-57
2023/10/11 07:49:05;;;;;;;8.23;5.23;;;18.10;99.90;;;;;;4994751;28;20232;-57
2023/10/11 07:51:35;;;;;;;8.13;4.30;;;18.20;99.90;;;;;;4990383;28;20208;-53
2023/10/11 07:54:06;;;;;;;7.27;5.00;;;18.20;99.90;;;;;;4990891;28;20272;-54
2023/10/11 07:56:36;;;;;;;9.90;4.30;;;18.30;99.90;;;;;;4976728;28;20291;-56
2023/10/11 07:59:08;;;;;;;6.97;4.70;;;18.40;99.90;;;;;;4991726;28;20188;-55
2023/10/11 08:01:42;;;;;;;7.37;4.30;;;18.40;99.90;;;;;;4993673;28;20200;-55
2023/10/11 08:04:15;;;;;;;8.57;5.27;;;18.50;99.90;;;;;;4990411;28;20208;-65
2023/10/11 08:06:41;;;;;;;7.80;5.30;;;18.60;99.90;;;;;;4989524;28;20743;-56
2023/10/11 08:09:09;;;;;;;7.43;4.27;;;18.70;99.90;;;;;;4990069;28;20227;-55
2023/10/11 08:11:45;;;;;;;5.67;4.40;;;18.80;99.90;;;;;;4992459;28;20291;-56
2023/10/11 08:14:15;;;;;;;10.40;4.93;;;18.90;99.90;;;;;;4995156;28;20200;-56
2023/10/11 08:16:47;;;;;;;6.47;4.63;;;18.90;99.90;;;;;;4993581;28;20571;-56
2023/10/11 08:19:13;;;;;;;7.97;4.50;;;19.00;99.90;;;;;;4987303;28;20561;-57
2023/10/11 08:21:39;;;;;;;10.13;5.33;;;19.00;99.90;;;;;;4994387;28;20878;-55
2023/10/11 08:24:09;;;;;;;7.53;5.57;;;19.20;99.90;;;;;;4991505;28;20236;-57
2023/10/11 08:26:42;;;;;;;8.40;4.30;;;19.20;99.90;;;;;;4974097;28;20202;-54
2023/10/11 08:29:14;;;;;;;8.97;5.20;;;19.20;99.90;;;;;;4993215;28;20850;-53
2023/10/11 08:31:43;;;;;;;5.57;4.07;;;19.30;99.90;;;;;;4992257;28;20924;-58
2023/10/11 08:34:09;;;;;;;4.80;4.03;;;19.30;99.90;;;;;;4994752;28;20201;-55
2023/10/11 08:36:35;;;;;;;11.90;5.00;;;19.40;99.90;;;;;;4992414;28;20200;-57
2023/10/11 08:39:05;;;;;;;5.80;4.23;;;19.40;99.90;;;;;;4974452;28;20214;-55
2023/10/11 08:41:31;;;;;;;7.80;4.60;;;19.50;99.90;;;;;;4992077;28;20308;-55
2023/10/11 08:43:59;;;;;;;5.40;4.13;;;19.60;99.90;;;;;;4988946;28;20203;-56
2023/10/11 08:46:31;;;;;;;7.53;4.47;;;19.60;99.90;;;;;;4992583;28;20191;-57
2023/10/11 08:49:00;;;;;;;6.60;4.30;;;19.70;99.90;;;;;;4976116;28;21054;-56
2023/10/11 08:51:36;;;;;;;10.57;4.67;;;19.80;99.90;;;;;;4993343;28;20206;-56
2023/10/11 08:54:11;;;;;;;5.43;4.00;;;19.80;99.90;;;;;;4993471;28;20312;-56
2023/10/11 08:56:38;;;;;;;5.20;4.20;;;19.80;99.90;;;;;;4987686;28;20205;-61
2023/10/11 08:59:05;;;;;;;6.77;4.93;;;19.80;99.90;;;;;;4969552;28;20651;-55
2023/10/11 09:01:36;;;;;;;7.97;4.53;;;19.80;99.90;;;;;;4993850;28;20207;-62
2023/10/11 09:04:06;;;;;;;5.77;4.30;;;19.90;99.90;;;;;;4994027;28;20196;-63
2023/10/11 09:06:35;;;;;;;7.33;4.57;;;20.00;99.90;;;;;;4993937;28;20217;-57
2023/10/11 09:09:02;;;;;;;6.73;4.10;;;20.00;99.90;;;;;;4991829;28;20227;-63
2023/10/11 09:11:28;;;;;;;6.63;4.77;;;20.00;99.90;;;;;;4976322;28;20216;-56
2023/10/11 09:14:14;;;;;;;7.93;4.90;;;20.10;99.90;;;;;;4993881;28;20610;-56
2023/10/11 09:16:40;;;;;;;8.43;4.40;;;20.20;99.90;;;;;;4993747;28;20273;-56
2023/10/11 09:19:06;;;;;;;8.83;4.77;;;20.20;99.90;;;;;;4985419;28;20214;-56
2023/10/11 09:21:35;;;;;;;9.97;4.60;;;20.20;99.90;;;;;;4993686;28;20368;-56
2023/10/11 09:24:03;;;;;;;6.70;3.87;;;20.30;99.90;;;;;;4987116;28;20688;-56
2023/10/11 09:26:34;;;;;;;12.20;4.47;;;20.40;99.90;;;;;;4989770;28;20209;-56
2023/10/11 09:29:02;;;;;;;5.80;3.93;;;20.40;99.90;;;;;;4991327;28;20887;-56
2023/10/11 09:31:32;;;;;;;10.50;4.17;;;20.50;99.90;;;;;;4975487;28;20200;-58
2023/10/11 09:34:07;;;;;;;6.50;4.13;;;20.50;99.90;;;;;;4988730;28;20230;-56
2023/10/11 09:36:33;;;;;;;6.47;3.93;;;20.50;99.90;;;;;;4992089;28;20681;-55
2023/10/11 09:39:02;;;;;;;10.20;4.50;;;20.50;99.90;;;;;;4991716;28;20226;-55
2023/10/11 09:41:38;;;;;;;6.37;3.77;;;20.50;99.90;;;;;;4990493;28;20280;-56
2023/10/11 09:44:06;;;;;;;8.53;4.27;;;20.50;99.90;;;;;;4986866;28;20296;-56
2023/10/11 09:46:34;;;;;;;6.97;3.90;;;20.50;99.90;;;;;;4990511;28;20201;-56
2023/10/11 09:49:02;;;;;;;11.33;4.37;;;20.60;99.90;;;;;;4992181;28;20247;-54
2023/10/11 09:51:29;;;;;;;7.87;4.30;;;20.50;99.90;;;;;;4993045;28;20210;-62
2023/10/11 09:54:01;;;;;;;8.73;4.90;;;20.60;99.90;;;;;;4990465;28;20217;-56
2023/10/11 09:56:35;;;;;;;9.30;4.33;;;20.60;99.90;;;;;;4990863;28;20195;-56
2023/10/11 09:59:25;;;;;;;7.53;4.67;;;20.70;99.90;;;;;;4989771;28;20201;-57
2023/10/11 10:02:07;;;;;;;8.37;4.43;;;20.80;99.90;;;;;;4992429;28;20200;-55
2023/10/11 10:04:51;;;;;;;9.30;4.50;;;20.80;99.90;;;;;;4993812;28;20210;-56
2023/10/11 10:07:28;;;;;;;6.40;4.13;;;20.90;99.90;;;;;;4990345;28;20191;-56
2023/10/11 10:10:02;;;;;;;4.23;3.83;;;20.90;99.90;;;;;;4989937;28;20205;-59
2023/10/11 10:13:09;;;;;;;5.87;4.40;;;21.00;99.90;;;;;;4975836;28;20991;-57
2023/10/11 10:15:47;;;;;;;8.27;4.50;;;21.00;99.90;;;;;;4927805;29;20205;-56
2023/10/11 10:18:17;;;;;;;6.93;4.40;;;21.10;99.90;;;;;;4984921;28;20730;-57
2023/10/11 10:20:44;;;;;;;6.93;4.03;;;21.30;99.90;;;;;;4974718;28;20963;-57
2023/10/11 10:23:15;;;;;;;10.50;3.73;;;21.40;99.90;;;;;;4966267;28;20259;-59
2023/10/11 10:25:48;;;;;;;6.97;4.30;;;21.50;99.90;;;;;;4989748;28;20258;-61
2023/10/11 10:28:32;;;;;;;5.87;3.87;;;21.50;99.90;;;;;;4992263;28;20235;-63
2023/10/11 10:31:11;;;;;;;5.50;4.07;;;21.40;99.90;;;;;;4975460;28;20957;-59
2023/10/11 10:33:41;;;;;;;6.20;3.93;;;21.40;99.90;;;;;;4987402;28;20203;-58
2023/10/11 10:36:19;;;;;;;6.27;4.50;;;21.40;99.90;;;;;;4992396;28;20481;-58
2023/10/11 10:38:59;;;;;;;4.57;4.13;;;21.50;99.90;;;;;;4991921;28;20227;-60
2023/10/11 10:41:26;;;;;;;8.27;4.43;;;21.60;99.90;;;;;;4992054;28;20238;-59
2023/10/11 10:44:25;;;;;;;6.53;3.67;;;21.70;99.90;;;;;;4983076;28;20243;-64
2023/10/11 10:46:53;;;;;;;9.37;4.03;;;22.00;99.90;;;;;;4941947;28;20243;-63
2023/10/11 10:49:44;;;;;;;7.13;4.10;;;22.00;99.90;;;;;;4989858;28;20701;-56
2023/10/11 10:52:17;;;;;;;9.60;4.57;;;22.10;99.90;;;;;;4989044;28;20277;-56
2023/10/11 10:55:05;;;;;;;7.80;4.33;;;22.20;99.90;;;;;;4988545;28;20204;-58
2023/10/11 10:57:32;;;;;;;5.63;4.07;;;22.40;99.90;;;;;;4986133;28;20986;-56
2023/10/11 11:00:05;;;;;;;6.57;3.80;;;22.50;99.90;;;;;;4991443;28;20515;-59
2023/10/11 11:02:37;;;;;;;7.17;3.90;;;22.50;99.90;;;;;;4991740;28;20203;-57
2023/10/11 11:05:13;;;;;;;6.00;4.33;;;22.70;99.80;;;;;;4988768;28;20778;-63
2023/10/11 11:07:40;;;;;;;6.63;3.60;;;22.70;99.60;;;;;;4988882;28;20199;-59
2023/10/11 11:10:06;;;;;;;9.97;4.53;;;22.90;99.30;;;;;;4988981;28;20214;-55
2023/10/11 11:12:31;;;;;;;6.70;3.77;;;23.00;99.00;;;;;;4991275;28;20623;-57
2023/10/11 11:15:00;;;;;;;9.30;4.93;;;23.10;98.70;;;;;;4990403;28;20293;-57
2023/10/11 11:17:47;;;;;;;7.68;4.15;;;23.20;98.70;;;;;;4991566;28;20199;-54
2023/10/11 11:20:14;;;;;;;6.20;3.97;;;23.30;98.80;;;;;;4991274;28;20247;-59
2023/10/11 11:22:41;;;;;;;7.50;4.17;;;23.50;98.60;;;;;;4988285;28;20228;-55
2023/10/11 11:25:45;;;;;;;7.20;4.53;;;23.70;98.20;;;;;;4990539;28;20205;-57
2023/10/11 11:28:05;;;;;;;7.80;4.33;;;23.40;98.20;;;;;;4981874;28;20246;-61
2023/10/11 11:30:34;;;;;;;6.50;4.10;;;23.70;97.40;;;;;;4990367;28;20251;-62
2023/10/11 11:33:47;;;;;;;6.57;4.50;;;24.10;96.80;;;;;;4992823;28;20829;-63
2023/10/11 11:36:31;;;;;;;3.93;3.53;;;24.00;97.30;;;;;;4987193;28;20588;-57
2023/10/11 11:41:49;;;;;;;8.10;4.00;;;24.20;97.40;;;;;;4991846;28;20223;-55
2023/10/11 11:44:20;;;;;;;8.68;4.07;;;24.20;96.00;;;;;;4987502;28;20192;-59
2023/10/11 11:46:50;;;;;;;4.15;3.72;;;24.40;95.20;;;;;;4977609;28;20313;-55
2023/10/11 11:49:25;;;;;;;8.27;4.47;;;24.10;96.40;;;;;;4989258;28;20278;-55
2023/10/11 11:51:51;;;;;;;6.38;3.45;;;24.40;95.40;;;;;;4984307;28;20235;-58
2023/10/11 11:54:22;;;;;;;6.88;3.67;;;24.70;95.00;;;;;;4989796;28;20200;-57
2023/10/11 11:56:54;;;;;;;4.07;3.42;;;24.70;94.80;;;;;;4984216;28;20305;-61
2023/10/11 11:59:23;;;;;;;7.43;4.18;;;24.70;94.60;;;;;;4991544;28;20200;-61
2023/10/11 12:01:59;;;;;;;5.90;4.22;;;25.00;94.30;;;;;;4993397;28;20574;-56
2023/10/11 12:04:33;;;;;;;5.53;4.13;;;24.90;93.90;;;;;;4994364;28;20676;-59
2023/10/11 12:07:02;;;;;;;5.85;5.00;;;24.90;93.60;;;;;;4994697;28;20222;-61
2023/10/11 12:09:34;;;;;;;7.28;4.03;;;24.60;94.40;;;;;;4991129;28;20248;-65
2023/10/11 12:12:04;;;;;;;7.50;3.58;;;24.70;94.30;;;;;;4991718;28;20275;-61
2023/10/11 12:14:37;;;;;;;8.88;4.45;;;25.00;94.00;;;;;;4987609;28;20208;-57
2023/10/11 12:17:09;;;;;;;13.80;4.22;;;24.90;94.00;;;;;;4991488;28;21533;-57
2023/10/11 12:19:40;;;;;;;4.38;3.95;;;24.90;93.70;;;;;;4974478;28;20227;-56
2023/10/11 12:22:06;;;;;;;7.80;4.57;;;24.70;93.70;;;;;;4992965;28;20983;-55
2023/10/11 12:24:32;;;;;;;6.88;4.22;;;24.90;93.60;;;;;;4991205;28;20216;-55
2023/10/11 12:27:00;;;;;;;5.88;4.85;;;24.90;93.00;;;;;;4993736;28;20204;-53
2023/10/11 12:29:26;;;;;;;5.20;3.95;;;24.70;93.80;;;;;;4993465;28;20287;-53
2023/10/11 12:31:54;;;;;;;6.90;4.45;;;24.70;93.20;;;;;;4975678;28;20205;-58
2023/10/11 12:34:24;;;;;;;5.97;3.83;;;24.50;93.20;;;;;;4975300;28;20302;-54
2023/10/11 12:36:52;;;;;;;9.25;4.97;;;24.20;93.90;;;;;;4993345;28;20809;-55
2023/10/11 12:39:21;;;;;;;5.67;4.13;;;23.90;93.80;;;;;;4990401;28;20574;-56
2023/10/11 12:41:49;;;;;;;6.47;3.67;;;23.70;94.30;;;;;;4972312;28;20789;-56
2023/10/11 12:44:18;;;;;;;6.93;4.13;;;23.50;94.60;;;;;;4989141;28;20199;-57
2023/10/11 12:46:45;;;;;;;8.60;3.70;;;23.40;94.70;;;;;;4975579;28;20213;-57
2023/10/11 12:49:13;;;;;;;6.93;3.73;;;23.30;94.80;;;;;;4972091;28;20211;-57
2023/10/11 12:51:42;;;;;;;7.73;4.37;;;23.20;95.10;;;;;;4993753;28;20259;-57
2023/10/11 12:54:08;;;;;;;8.37;4.47;;;23.10;95.30;;;;;;4975423;28;20682;-57
2023/10/11 12:56:34;;;;;;;13.60;4.37;;;23.20;95.10;;;;;;4993627;28;20983;-59
2023/10/11 12:58:59;;;;;;;8.43;4.03;;;23.10;95.60;;;;;;4978105;28;20250;-56
2023/10/11 13:01:37;;;;;;;7.27;4.57;;;23.10;95.30;;;;;;4991576;28;20204;-56
2023/10/11 13:04:08;;;;;;;4.97;3.73;;;23.10;96.40;;;;;;4991653;28;20192;-57
2023/10/11 13:06:37;;;;;;;6.43;3.75;;;23.20;95.30;;;;;;4987338;28;20255;-56
2023/10/11 13:09:13;;;;;;;6.87;4.33;;;23.20;95.20;;;;;;4985492;28;20220;-56
2023/10/11 13:11:44;;;;;;;10.73;4.63;;;23.40;95.40;;;;;;4992597;28;20737;-57
2023/10/11 13:14:13;;;;;;;8.77;4.90;;;23.60;94.90;;;;;;4969271;28;20709;-56
2023/10/11 13:16:40;;;;;;;6.57;4.27;;;23.70;95.00;;;;;;4992312;28;20257;-60
2023/10/11 13:19:08;;;;;;;6.07;3.88;;;23.90;94.60;;;;;;4995398;28;20192;-55
2023/10/11 13:21:35;;;;;;;6.45;3.58;;;24.10;94.50;;;;;;4991373;28;20688;-56
2023/10/11 13:24:08;;;;;;;9.00;3.83;;;24.40;93.80;;;;;;4992893;28;20973;-60
2023/10/11 13:26:34;;;;;;;10.07;4.90;;;24.50;93.70;;;;;;4992883;28;20207;-56
2023/10/11 13:29:01;;;;;;;5.90;4.30;;;24.50;94.50;;;;;;4992079;28;20770;-58
2023/10/11 13:31:29;;;;;;;5.57;3.72;;;24.80;93.40;;;;;;4989611;28;20981;-57
2023/10/11 13:33:55;;;;;;;7.35;4.47;;;25.00;92.80;;;;;;4993035;28;20188;-57
2023/10/11 13:36:21;;;;;;;7.70;4.18;;;24.80;93.30;;;;;;4990682;28;20200;-56
2023/10/11 13:38:47;;;;;;;6.72;4.22;;;24.90;93.10;;;;;;4974775;28;20357;-56
2023/10/11 13:41:12;;;;;;;7.15;4.10;;;25.00;92.80;;;;;;4989577;28;20349;-57
2023/10/11 13:43:39;;;;;;;5.53;4.32;;;25.00;92.90;;;;;;4990420;28;20260;-57